Aeroporto :
LOGIN :

Iscrizione | Disclaimer

   EN    FR    IT 

 










Sommario :    VFR   VFR Marginale   IFR   IFR Intensivo   IFR Molto Intensivo
Visibilità : 
Base nubi : 
>= 8 km
>= 3000ft
5 / 8 km
1000 / 3000 ft
1500m / 5 km
500 / 1000 ft
800 / 1500m
200 / 500 ft
< 800m
< 200 ft
Simboli :   Temporali  Nebbia  Neve Forte  Precipitazioni Forti  Vento > 20 kt
SIGMETs :   Varie  Temporali  Ghiacco  Turbolenza  Onda orograficha  Ceneri Vulcaniche







- Altitudine del aeroporto : 989 ft
- Codice IATA : TRN


LIMF - Torino Caselle

ULTIMO METAR :
  • 231520Z VRB02KT CAVOK 27/18 Q1015

METARs OBSOLETI :
  • 231450Z 08003KT 040V110 9999 FEW040 27/19 Q1015
  • 231420Z VRB02KT 9999 FEW040 26/18 Q1016
  • 231350Z 06003KT 020V080 9999 FEW038 26/18 Q1016
  • 231320Z VRB02KT 9999 FEW030 27/19 Q1016
  • 231250Z 13004KT 080V180 9999 FEW030 27/19 Q1017

TAF TAF LIMF
Valido dal 23 a 12 ore il 24 a 12 ore UTC


231100Z 2312/2412 VRB05KT CAVOK
Nessun NOTAM noto per questo aeroporto.



MetMap, La meteo Aeronautica in un colpo d'occhio ! - Copyright ORBIFLY Dicembre 2007 - Disclaimer

ORBIFLY MET'MAP TEAM :

Programmazione e sviluppo : Alexandra Zaïnal
Concezione e sviluppo : Baudouin d'Aumeries
Co-Programmazione e sviluppo : Marc-Olivier Méhu
Supporto tecnico e logistico : Manuel Goepfert
Aiuto per la traduzione : Arnaldo La Scala

Contatto : metmap@orbifly.com




FONTI E CREDITI :

   NOAA